sensor_id;sensor_type;location;lat;lon;timestamp;temperature;humidity
17405;DHT22;8820;54.604;18.226;2024-03-06T00:02:12;7.70;99.90
17405;DHT22;8820;54.604;18.226;2024-03-06T00:04:40;7.70;99.90
17405;DHT22;8820;54.604;18.226;2024-03-06T00:07:09;7.80;99.90
17405;DHT22;8820;54.604;18.226;2024-03-06T00:09:37;7.80;99.90
17405;DHT22;8820;54.604;18.226;2024-03-06T00:12:05;8.00;99.90
17405;DHT22;8820;54.604;18.226;2024-03-06T00:14:35;8.10;99.90
17405;DHT22;8820;54.604;18.226;2024-03-06T00:17:04;8.00;99.90
17405;DHT22;8820;54.604;18.226;2024-03-06T00:19:34;8.00;99.90
17405;DHT22;8820;54.604;18.226;2024-03-06T00:22:02;7.80;99.90
17405;DHT22;8820;54.604;18.226;2024-03-06T00:24:30;7.70;99.90
17405;DHT22;8820;54.604;18.226;2024-03-06T00:26:59;7.70;99.90
17405;DHT22;8820;54.604;18.226;2024-03-06T00:29:28;7.70;99.90
17405;DHT22;8820;54.604;18.226;2024-03-06T00:32:00;7.70;99.90
17405;DHT22;8820;54.604;18.226;2024-03-06T00:34:28;7.80;99.90
17405;DHT22;8820;54.604;18.226;2024-03-06T00:36:56;7.60;99.90
17405;DHT22;8820;54.604;18.226;2024-03-06T00:39:24;7.50;99.90
17405;DHT22;8820;54.604;18.226;2024-03-06T00:41:53;7.60;99.90
17405;DHT22;8820;54.604;18.226;2024-03-06T00:44:21;7.70;99.90
17405;DHT22;8820;54.604;18.226;2024-03-06T00:46:49;7.70;99.90
17405;DHT22;8820;54.604;18.226;2024-03-06T00:49:19;7.70;99.90
17405;DHT22;8820;54.604;18.226;2024-03-06T00:51:47;7.70;99.90
17405;DHT22;8820;54.604;18.226;2024-03-06T00:54:15;7.70;99.90
17405;DHT22;8820;54.604;18.226;2024-03-06T00:56:44;7.50;99.90
17405;DHT22;8820;54.604;18.226;2024-03-06T00:59:12;7.70;99.90
17405;DHT22;8820;54.604;18.226;2024-03-06T01:01:40;7.90;99.90
17405;DHT22;8820;54.604;18.226;2024-03-06T01:04:09;7.90;99.90
17405;DHT22;8820;54.604;18.226;2024-03-06T01:06:38;7.90;99.90
17405;DHT22;8820;54.604;18.226;2024-03-06T01:09:10;7.80;99.90
17405;DHT22;8820;54.604;18.226;2024-03-06T01:11:38;7.90;99.90
17405;DHT22;8820;54.604;18.226;2024-03-06T01:14:06;7.80;99.90
17405;DHT22;8820;54.604;18.226;2024-03-06T01:16:34;7.80;99.90
17405;DHT22;8820;54.604;18.226;2024-03-06T01:19:02;7.90;99.90
17405;DHT22;8820;54.604;18.226;2024-03-06T01:21:30;8.00;99.90
17405;DHT22;8820;54.604;18.226;2024-03-06T01:24:02;8.00;99.90
17405;DHT22;8820;54.604;18.226;2024-03-06T01:26:31;8.00;99.90
17405;DHT22;8820;54.604;18.226;2024-03-06T01:28:59;8.00;99.90
17405;DHT22;8820;54.604;18.226;2024-03-06T01:31:27;7.80;99.90
17405;DHT22;8820;54.604;18.226;2024-03-06T01:33:55;8.00;99.90
17405;DHT22;8820;54.604;18.226;2024-03-06T01:36:23;8.00;99.90
17405;DHT22;8820;54.604;18.226;2024-03-06T01:38:51;7.90;99.90
17405;DHT22;8820;54.604;18.226;2024-03-06T01:41:21;7.80;99.90
17405;DHT22;8820;54.604;18.226;2024-03-06T01:43:49;7.80;99.90
17405;DHT22;8820;54.604;18.226;2024-03-06T01:46:17;7.80;99.90
17405;DHT22;8820;54.604;18.226;2024-03-06T01:48:46;7.70;99.90
17405;DHT22;8820;54.604;18.226;2024-03-06T01:51:14;7.80;99.90
17405;DHT22;8820;54.604;18.226;2024-03-06T01:53:42;7.50;99.90
17405;DHT22;8820;54.604;18.226;2024-03-06T01:56:10;7.50;99.90
17405;DHT22;8820;54.604;18.226;2024-03-06T01:58:46;7.50;99.90
17405;DHT22;8820;54.604;18.226;2024-03-06T02:01:15;7.60;99.90
17405;DHT22;8820;54.604;18.226;2024-03-06T02:03:44;7.50;99.90
17405;DHT22;8820;54.604;18.226;2024-03-06T02:06:14;7.70;99.90
17405;DHT22;8820;54.604;18.226;2024-03-06T02:08:46;7.80;99.90
17405;DHT22;8820;54.604;18.226;2024-03-06T02:11:14;8.00;99.90
17405;DHT22;8820;54.604;18.226;2024-03-06T02:13:43;8.00;99.90
17405;DHT22;8820;54.604;18.226;2024-03-06T02:16:13;8.00;99.90
17405;DHT22;8820;54.604;18.226;2024-03-06T02:18:51;7.90;99.90
17405;DHT22;8820;54.604;18.226;2024-03-06T02:21:22;7.80;99.90
17405;DHT22;8820;54.604;18.226;2024-03-06T02:23:50;7.80;99.90
17405;DHT22;8820;54.604;18.226;2024-03-06T02:26:19;7.80;99.90
17405;DHT22;8820;54.604;18.226;2024-03-06T02:28:47;7.90;99.90
17405;DHT22;8820;54.604;18.226;2024-03-06T02:31:17;8.00;99.90
17405;DHT22;8820;54.604;18.226;2024-03-06T02:33:47;8.00;99.90
17405;DHT22;8820;54.604;18.226;2024-03-06T02:36:16;8.00;99.90
17405;DHT22;8820;54.604;18.226;2024-03-06T02:38:46;7.90;99.90
17405;DHT22;8820;54.604;18.226;2024-03-06T02:41:14;7.80;99.90
17405;DHT22;8820;54.604;18.226;2024-03-06T02:43:42;7.80;99.90
17405;DHT22;8820;54.604;18.226;2024-03-06T02:46:11;7.90;99.90
17405;DHT22;8820;54.604;18.226;2024-03-06T02:48:39;7.90;99.90
17405;DHT22;8820;54.604;18.226;2024-03-06T02:51:07;7.70;99.90
17405;DHT22;8820;54.604;18.226;2024-03-06T02:53:35;7.80;99.90
17405;DHT22;8820;54.604;18.226;2024-03-06T02:56:05;7.70;99.90
17405;DHT22;8820;54.604;18.226;2024-03-06T02:58:35;7.60;99.90
17405;DHT22;8820;54.604;18.226;2024-03-06T03:01:03;7.80;99.90
17405;DHT22;8820;54.604;18.226;2024-03-06T03:03:32;7.80;99.90
17405;DHT22;8820;54.604;18.226;2024-03-06T03:06:00;7.90;99.90
17405;DHT22;8820;54.604;18.226;2024-03-06T03:08:28;7.80;99.90
17405;DHT22;8820;54.604;18.226;2024-03-06T03:10:56;7.70;99.90
17405;DHT22;8820;54.604;18.226;2024-03-06T03:13:25;7.70;99.90
17405;DHT22;8820;54.604;18.226;2024-03-06T03:15:53;7.80;99.90
17405;DHT22;8820;54.604;18.226;2024-03-06T03:18:22;7.90;99.90
17405;DHT22;8820;54.604;18.226;2024-03-06T03:20:50;7.90;99.90
17405;DHT22;8820;54.604;18.226;2024-03-06T03:23:18;7.90;99.90
17405;DHT22;8820;54.604;18.226;2024-03-06T03:25:49;7.90;99.90
17405;DHT22;8820;54.604;18.226;2024-03-06T03:28:17;7.80;99.90
17405;DHT22;8820;54.604;18.226;2024-03-06T03:30:46;7.70;99.90
17405;DHT22;8820;54.604;18.226;2024-03-06T03:33:14;7.70;99.90
17405;DHT22;8820;54.604;18.226;2024-03-06T03:35:43;7.70;99.90
17405;DHT22;8820;54.604;18.226;2024-03-06T03:38:11;7.70;99.90
17405;DHT22;8820;54.604;18.226;2024-03-06T03:40:39;7.60;99.90
17405;DHT22;8820;54.604;18.226;2024-03-06T03:43:08;7.70;99.90
17405;DHT22;8820;54.604;18.226;2024-03-06T03:45:36;7.60;99.90
17405;DHT22;8820;54.604;18.226;2024-03-06T03:48:06;7.50;99.90
17405;DHT22;8820;54.604;18.226;2024-03-06T03:50:34;7.60;99.90
17405;DHT22;8820;54.604;18.226;2024-03-06T03:53:02;7.60;99.90
17405;DHT22;8820;54.604;18.226;2024-03-06T03:55:31;7.60;99.90
17405;DHT22;8820;54.604;18.226;2024-03-06T03:57:59;7.60;99.90
17405;DHT22;8820;54.604;18.226;2024-03-06T04:00:27;7.50;99.90
17405;DHT22;8820;54.604;18.226;2024-03-06T04:02:55;7.30;99.90
17405;DHT22;8820;54.604;18.226;2024-03-06T04:05:25;7.50;99.90
17405;DHT22;8820;54.604;18.226;2024-03-06T04:07:53;7.50;99.90
17405;DHT22;8820;54.604;18.226;2024-03-06T04:10:22;7.30;99.90
17405;DHT22;8820;54.604;18.226;2024-03-06T04:12:50;7.30;99.90
17405;DHT22;8820;54.604;18.226;2024-03-06T04:15:18;7.20;99.90
17405;DHT22;8820;54.604;18.226;2024-03-06T04:17:46;7.10;99.90
17405;DHT22;8820;54.604;18.226;2024-03-06T04:20:15;7.00;99.90
17405;DHT22;8820;54.604;18.226;2024-03-06T04:22:44;7.10;99.90
17405;DHT22;8820;54.604;18.226;2024-03-06T04:25:13;6.90;99.90
17405;DHT22;8820;54.604;18.226;2024-03-06T04:27:41;7.00;99.90
17405;DHT22;8820;54.604;18.226;2024-03-06T04:30:10;7.00;99.90
17405;DHT22;8820;54.604;18.226;2024-03-06T04:32:38;7.10;99.90
17405;DHT22;8820;54.604;18.226;2024-03-06T04:35:07;7.20;99.90
17405;DHT22;8820;54.604;18.226;2024-03-06T04:37:37;7.10;99.90
17405;DHT22;8820;54.604;18.226;2024-03-06T04:40:08;7.10;99.90
17405;DHT22;8820;54.604;18.226;2024-03-06T04:42:37;7.00;99.90
17405;DHT22;8820;54.604;18.226;2024-03-06T04:45:10;7.10;99.90
17405;DHT22;8820;54.604;18.226;2024-03-06T04:47:38;7.10;99.90
17405;DHT22;8820;54.604;18.226;2024-03-06T04:50:09;7.20;99.90
17405;DHT22;8820;54.604;18.226;2024-03-06T04:52:37;7.10;99.90
17405;DHT22;8820;54.604;18.226;2024-03-06T04:55:08;7.00;99.90
17405;DHT22;8820;54.604;18.226;2024-03-06T04:57:38;7.10;99.90
17405;DHT22;8820;54.604;18.226;2024-03-06T05:00:08;6.90;99.90
17405;DHT22;8820;54.604;18.226;2024-03-06T05:02:37;6.90;99.90
17405;DHT22;8820;54.604;18.226;2024-03-06T05:05:23;6.90;99.90
17405;DHT22;8820;54.604;18.226;2024-03-06T05:08:10;7.00;99.90
17405;DHT22;8820;54.604;18.226;2024-03-06T05:10:59;6.90;99.90
17405;DHT22;8820;54.604;18.226;2024-03-06T05:13:45;6.60;99.90
17405;DHT22;8820;54.604;18.226;2024-03-06T05:16:30;6.70;99.90
17405;DHT22;8820;54.604;18.226;2024-03-06T05:19:16;6.70;99.90
17405;DHT22;8820;54.604;18.226;2024-03-06T05:22:02;6.70;99.90
17405;DHT22;8820;54.604;18.226;2024-03-06T05:24:47;6.50;99.90
17405;DHT22;8820;54.604;18.226;2024-03-06T05:27:34;6.70;99.90
17405;DHT22;8820;54.604;18.226;2024-03-06T05:30:20;6.70;99.90
17405;DHT22;8820;54.604;18.226;2024-03-06T05:33:05;6.80;99.90
17405;DHT22;8820;54.604;18.226;2024-03-06T05:35:51;7.00;99.90
17405;DHT22;8820;54.604;18.226;2024-03-06T05:38:36;7.10;99.90
17405;DHT22;8820;54.604;18.226;2024-03-06T05:41:22;6.90;99.90
17405;DHT22;8820;54.604;18.226;2024-03-06T05:44:08;7.00;99.90
17405;DHT22;8820;54.604;18.226;2024-03-06T05:46:54;7.00;99.90
17405;DHT22;8820;54.604;18.226;2024-03-06T05:49:40;6.90;99.90
17405;DHT22;8820;54.604;18.226;2024-03-06T05:52:25;6.90;99.90
17405;DHT22;8820;54.604;18.226;2024-03-06T05:55:11;6.90;99.90
17405;DHT22;8820;54.604;18.226;2024-03-06T05:57:57;6.80;99.90
17405;DHT22;8820;54.604;18.226;2024-03-06T06:00:37;6.80;99.90
17405;DHT22;8820;54.604;18.226;2024-03-06T06:03:07;6.70;99.90
17405;DHT22;8820;54.604;18.226;2024-03-06T06:05:35;6.70;99.90
17405;DHT22;8820;54.604;18.226;2024-03-06T06:08:05;6.70;99.90
17405;DHT22;8820;54.604;18.226;2024-03-06T06:10:33;6.90;99.90
17405;DHT22;8820;54.604;18.226;2024-03-06T06:13:01;7.00;99.90
17405;DHT22;8820;54.604;18.226;2024-03-06T06:15:31;7.00;99.90
17405;DHT22;8820;54.604;18.226;2024-03-06T06:18:01;6.90;99.90
17405;DHT22;8820;54.604;18.226;2024-03-06T06:20:29;6.70;99.90
17405;DHT22;8820;54.604;18.226;2024-03-06T06:22:58;6.80;99.90
17405;DHT22;8820;54.604;18.226;2024-03-06T06:25:26;6.90;99.90
17405;DHT22;8820;54.604;18.226;2024-03-06T06:27:54;6.90;99.90
17405;DHT22;8820;54.604;18.226;2024-03-06T06:30:22;6.80;99.90
17405;DHT22;8820;54.604;18.226;2024-03-06T06:32:50;6.90;99.90
17405;DHT22;8820;54.604;18.226;2024-03-06T06:35:20;6.80;99.90
17405;DHT22;8820;54.604;18.226;2024-03-06T06:37:49;6.90;99.90
17405;DHT22;8820;54.604;18.226;2024-03-06T06:40:17;6.90;99.90
17405;DHT22;8820;54.604;18.226;2024-03-06T06:42:48;6.90;99.90
17405;DHT22;8820;54.604;18.226;2024-03-06T06:45:18;7.00;99.90
17405;DHT22;8820;54.604;18.226;2024-03-06T06:47:47;6.90;99.90
17405;DHT22;8820;54.604;18.226;2024-03-06T06:50:16;6.80;99.90
17405;DHT22;8820;54.604;18.226;2024-03-06T06:52:45;6.70;99.90
17405;DHT22;8820;54.604;18.226;2024-03-06T06:55:14;6.80;99.90
17405;DHT22;8820;54.604;18.226;2024-03-06T06:57:42;6.80;99.90
17405;DHT22;8820;54.604;18.226;2024-03-06T07:00:11;6.80;99.90
17405;DHT22;8820;54.604;18.226;2024-03-06T07:02:40;6.80;99.90
17405;DHT22;8820;54.604;18.226;2024-03-06T07:05:10;6.80;99.90
17405;DHT22;8820;54.604;18.226;2024-03-06T07:07:39;7.00;99.90
17405;DHT22;8820;54.604;18.226;2024-03-06T07:10:09;7.10;99.90
17405;DHT22;8820;54.604;18.226;2024-03-06T07:12:37;7.20;99.90
17405;DHT22;8820;54.604;18.226;2024-03-06T07:15:06;7.20;99.90
17405;DHT22;8820;54.604;18.226;2024-03-06T07:17:35;7.10;99.90
17405;DHT22;8820;54.604;18.226;2024-03-06T07:20:04;7.20;99.90
17405;DHT22;8820;54.604;18.226;2024-03-06T07:22:33;7.30;99.40
17405;DHT22;8820;54.604;18.226;2024-03-06T07:25:01;7.40;99.20
17405;DHT22;8820;54.604;18.226;2024-03-06T07:27:31;7.60;98.60
17405;DHT22;8820;54.604;18.226;2024-03-06T07:29:59;7.80;96.60
17405;DHT22;8820;54.604;18.226;2024-03-06T07:32:27;8.20;94.30
17405;DHT22;8820;54.604;18.226;2024-03-06T07:34:55;8.40;92.50
17405;DHT22;8820;54.604;18.226;2024-03-06T07:37:25;8.50;89.00
17405;DHT22;8820;54.604;18.226;2024-03-06T07:39:53;8.70;86.70
17405;DHT22;8820;54.604;18.226;2024-03-06T07:42:21;9.00;83.20
17405;DHT22;8820;54.604;18.226;2024-03-06T07:44:51;9.30;81.00
17405;DHT22;8820;54.604;18.226;2024-03-06T07:47:20;9.40;76.20
17405;DHT22;8820;54.604;18.226;2024-03-06T07:49:48;9.40;75.80
17405;DHT22;8820;54.604;18.226;2024-03-06T07:52:17;9.80;74.70
17405;DHT22;8820;54.604;18.226;2024-03-06T07:54:45;9.80;71.00
17405;DHT22;8820;54.604;18.226;2024-03-06T07:57:14;10.10;72.60
17405;DHT22;8820;54.604;18.226;2024-03-06T07:59:42;10.20;71.20
17405;DHT22;8820;54.604;18.226;2024-03-06T08:02:11;10.60;68.90
17405;DHT22;8820;54.604;18.226;2024-03-06T08:04:39;10.90;65.80
17405;DHT22;8820;54.604;18.226;2024-03-06T08:07:07;10.80;68.20
17405;DHT22;8820;54.604;18.226;2024-03-06T08:09:35;11.20;66.00
17405;DHT22;8820;54.604;18.226;2024-03-06T08:12:04;11.50;67.50
17405;DHT22;8820;54.604;18.226;2024-03-06T08:14:33;12.20;65.00
17405;DHT22;8820;54.604;18.226;2024-03-06T08:17:01;11.80;62.80
17405;DHT22;8820;54.604;18.226;2024-03-06T08:19:31;12.30;64.00
17405;DHT22;8820;54.604;18.226;2024-03-06T08:21:59;12.90;61.20
17405;DHT22;8820;54.604;18.226;2024-03-06T08:24:32;12.90;58.90
17405;DHT22;8820;54.604;18.226;2024-03-06T08:27:00;12.80;58.70
17405;DHT22;8820;54.604;18.226;2024-03-06T08:29:28;12.70;58.00
17405;DHT22;8820;54.604;18.226;2024-03-06T08:31:57;12.00;60.20
17405;DHT22;8820;54.604;18.226;2024-03-06T08:34:26;12.20;59.10
17405;DHT22;8820;54.604;18.226;2024-03-06T08:36:56;12.30;59.30
17405;DHT22;8820;54.604;18.226;2024-03-06T08:39:24;12.20;59.60
17405;DHT22;8820;54.604;18.226;2024-03-06T08:41:52;12.40;59.80
17405;DHT22;8820;54.604;18.226;2024-03-06T08:44:20;12.70;58.70
17405;DHT22;8820;54.604;18.226;2024-03-06T08:46:48;12.00;58.40
17405;DHT22;8820;54.604;18.226;2024-03-06T08:49:17;11.60;60.00
17405;DHT22;8820;54.604;18.226;2024-03-06T08:51:45;12.00;59.80
17405;DHT22;8820;54.604;18.226;2024-03-06T08:54:14;11.90;59.20
17405;DHT22;8820;54.604;18.226;2024-03-06T08:56:43;11.40;59.60
17405;DHT22;8820;54.604;18.226;2024-03-06T08:59:12;11.30;61.00
17405;DHT22;8820;54.604;18.226;2024-03-06T09:01:40;11.40;60.40
17405;DHT22;8820;54.604;18.226;2024-03-06T09:04:08;11.40;60.60
17405;DHT22;8820;54.604;18.226;2024-03-06T09:06:36;11.10;61.50
17405;DHT22;8820;54.604;18.226;2024-03-06T09:09:04;10.30;62.40
17405;DHT22;8820;54.604;18.226;2024-03-06T09:11:34;10.20;63.90
17405;DHT22;8820;54.604;18.226;2024-03-06T09:14:03;10.30;63.70
17405;DHT22;8820;54.604;18.226;2024-03-06T09:16:31;10.30;63.40
17405;DHT22;8820;54.604;18.226;2024-03-06T09:18:59;10.30;64.00
17405;DHT22;8820;54.604;18.226;2024-03-06T09:21:28;10.80;63.20
17405;DHT22;8820;54.604;18.226;2024-03-06T09:23:56;11.20;61.80
17405;DHT22;8820;54.604;18.226;2024-03-06T09:26:24;11.30;62.90
17405;DHT22;8820;54.604;18.226;2024-03-06T09:28:53;10.90;61.80
17405;DHT22;8820;54.604;18.226;2024-03-06T09:31:22;10.80;61.70
17405;DHT22;8820;54.604;18.226;2024-03-06T09:33:50;10.40;62.20
17405;DHT22;8820;54.604;18.226;2024-03-06T09:36:18;10.40;62.90
17405;DHT22;8820;54.604;18.226;2024-03-06T09:38:46;10.70;62.70
17405;DHT22;8820;54.604;18.226;2024-03-06T09:41:14;10.50;62.60
17405;DHT22;8820;54.604;18.226;2024-03-06T09:43:43;11.30;61.20
17405;DHT22;8820;54.604;18.226;2024-03-06T09:46:14;12.30;58.80
17405;DHT22;8820;54.604;18.226;2024-03-06T09:48:45;14.30;55.20
17405;DHT22;8820;54.604;18.226;2024-03-06T09:51:14;15.30;52.20
17405;DHT22;8820;54.604;18.226;2024-03-06T09:53:42;16.40;49.10
17405;DHT22;8820;54.604;18.226;2024-03-06T09:56:11;17.00;48.20
17405;DHT22;8820;54.604;18.226;2024-03-06T09:58:40;18.80;45.80
17405;DHT22;8820;54.604;18.226;2024-03-06T10:01:09;20.40;43.50
17405;DHT22;8820;54.604;18.226;2024-03-06T10:03:40;20.00;42.70
17405;DHT22;8820;54.604;18.226;2024-03-06T10:06:09;21.00;42.00
17405;DHT22;8820;54.604;18.226;2024-03-06T10:08:42;21.10;41.20
17405;DHT22;8820;54.604;18.226;2024-03-06T10:11:11;21.50;40.30
17405;DHT22;8820;54.604;18.226;2024-03-06T10:13:39;22.00;39.70
17405;DHT22;8820;54.604;18.226;2024-03-06T10:16:07;22.20;38.40
17405;DHT22;8820;54.604;18.226;2024-03-06T10:18:39;22.10;38.10
17405;DHT22;8820;54.604;18.226;2024-03-06T10:21:08;22.90;37.60
17405;DHT22;8820;54.604;18.226;2024-03-06T10:23:36;22.50;37.60
17405;DHT22;8820;54.604;18.226;2024-03-06T10:26:07;22.70;37.80
17405;DHT22;8820;54.604;18.226;2024-03-06T10:28:36;22.90;38.00
17405;DHT22;8820;54.604;18.226;2024-03-06T10:31:05;23.70;36.60
17405;DHT22;8820;54.604;18.226;2024-03-06T10:33:35;24.10;36.40
17405;DHT22;8820;54.604;18.226;2024-03-06T10:36:10;25.00;35.20
17405;DHT22;8820;54.604;18.226;2024-03-06T10:38:41;24.70;34.10
17405;DHT22;8820;54.604;18.226;2024-03-06T10:41:13;24.70;34.70
17405;DHT22;8820;54.604;18.226;2024-03-06T10:43:45;25.60;34.10
17405;DHT22;8820;54.604;18.226;2024-03-06T10:46:16;25.20;33.40
17405;DHT22;8820;54.604;18.226;2024-03-06T10:48:48;23.90;33.80
17405;DHT22;8820;54.604;18.226;2024-03-06T10:51:22;23.80;34.60
17405;DHT22;8820;54.604;18.226;2024-03-06T10:53:50;24.90;34.40
17405;DHT22;8820;54.604;18.226;2024-03-06T10:56:20;23.80;34.00
17405;DHT22;8820;54.604;18.226;2024-03-06T10:58:50;24.50;34.20
17405;DHT22;8820;54.604;18.226;2024-03-06T11:01:19;25.00;32.80
17405;DHT22;8820;54.604;18.226;2024-03-06T11:03:47;24.00;33.70
17405;DHT22;8820;54.604;18.226;2024-03-06T11:06:17;23.60;33.90
17405;DHT22;8820;54.604;18.226;2024-03-06T11:08:47;24.10;34.20
17405;DHT22;8820;54.604;18.226;2024-03-06T11:11:19;22.60;34.80
17405;DHT22;8820;54.604;18.226;2024-03-06T11:13:48;22.70;34.80
17405;DHT22;8820;54.604;18.226;2024-03-06T11:16:16;22.30;34.90
17405;DHT22;8820;54.604;18.226;2024-03-06T11:18:44;23.10;35.00
17405;DHT22;8820;54.604;18.226;2024-03-06T11:21:31;23.10;34.60
17405;DHT22;8820;54.604;18.226;2024-03-06T11:24:20;22.20;35.20
17405;DHT22;8820;54.604;18.226;2024-03-06T11:26:50;21.70;36.10
17405;DHT22;8820;54.604;18.226;2024-03-06T11:29:23;21.60;35.70
17405;DHT22;8820;54.604;18.226;2024-03-06T11:32:05;20.60;37.10
17405;DHT22;8820;54.604;18.226;2024-03-06T11:34:37;21.00;37.30
17405;DHT22;8820;54.604;18.226;2024-03-06T11:37:07;20.40;36.70
17405;DHT22;8820;54.604;18.226;2024-03-06T11:39:39;19.40;37.70
17405;DHT22;8820;54.604;18.226;2024-03-06T11:42:08;19.40;38.90
17405;DHT22;8820;54.604;18.226;2024-03-06T11:44:37;18.60;38.80
17405;DHT22;8820;54.604;18.226;2024-03-06T11:47:07;18.70;39.40
17405;DHT22;8820;54.604;18.226;2024-03-06T11:49:36;18.80;39.60
17405;DHT22;8820;54.604;18.226;2024-03-06T11:52:06;18.80;40.10
17405;DHT22;8820;54.604;18.226;2024-03-06T11:54:35;19.10;39.10
17405;DHT22;8820;54.604;18.226;2024-03-06T11:57:05;19.10;39.30
17405;DHT22;8820;54.604;18.226;2024-03-06T11:59:34;19.10;39.00
17405;DHT22;8820;54.604;18.226;2024-03-06T12:02:04;19.30;39.00
17405;DHT22;8820;54.604;18.226;2024-03-06T12:04:34;19.30;38.30
17405;DHT22;8820;54.604;18.226;2024-03-06T12:07:04;19.90;39.40
17405;DHT22;8820;54.604;18.226;2024-03-06T12:09:35;21.00;37.40
17405;DHT22;8820;54.604;18.226;2024-03-06T12:12:08;20.70;37.30
17405;DHT22;8820;54.604;18.226;2024-03-06T12:14:37;18.60;39.00
17405;DHT22;8820;54.604;18.226;2024-03-06T12:17:10;17.60;40.80
17405;DHT22;8820;54.604;18.226;2024-03-06T12:19:42;17.00;42.60
17405;DHT22;8820;54.604;18.226;2024-03-06T12:22:11;16.10;43.80
17405;DHT22;8820;54.604;18.226;2024-03-06T12:24:39;16.00;44.90
17405;DHT22;8820;54.604;18.226;2024-03-06T12:27:09;16.10;44.50
17405;DHT22;8820;54.604;18.226;2024-03-06T12:29:40;15.60;45.10
17405;DHT22;8820;54.604;18.226;2024-03-06T12:32:16;15.30;45.80
17405;DHT22;8820;54.604;18.226;2024-03-06T12:34:56;17.00;44.30
17405;DHT22;8820;54.604;18.226;2024-03-06T12:37:29;17.70;42.80
17405;DHT22;8820;54.604;18.226;2024-03-06T12:40:02;18.90;40.60
17405;DHT22;8820;54.604;18.226;2024-03-06T12:42:32;20.90;39.20
17405;DHT22;8820;54.604;18.226;2024-03-06T12:45:01;20.20;38.40
17405;DHT22;8820;54.604;18.226;2024-03-06T12:47:30;20.90;37.00
17405;DHT22;8820;54.604;18.226;2024-03-06T12:49:58;21.20;36.70
17405;DHT22;8820;54.604;18.226;2024-03-06T12:52:27;20.80;36.40
17405;DHT22;8820;54.604;18.226;2024-03-06T12:54:55;21.30;37.00
17405;DHT22;8820;54.604;18.226;2024-03-06T12:57:23;22.20;35.40
17405;DHT22;8820;54.604;18.226;2024-03-06T12:59:53;20.50;36.40
17405;DHT22;8820;54.604;18.226;2024-03-06T13:02:21;19.60;38.50
17405;DHT22;8820;54.604;18.226;2024-03-06T13:04:49;20.00;37.90
17405;DHT22;8820;54.604;18.226;2024-03-06T13:07:17;19.10;38.00
17405;DHT22;8820;54.604;18.226;2024-03-06T13:09:45;19.50;39.60
17405;DHT22;8820;54.604;18.226;2024-03-06T13:12:13;18.30;39.80
17405;DHT22;8820;54.604;18.226;2024-03-06T13:14:42;17.30;41.40
17405;DHT22;8820;54.604;18.226;2024-03-06T13:17:12;16.60;42.50
17405;DHT22;8820;54.604;18.226;2024-03-06T13:19:40;16.70;42.80
17405;DHT22;8820;54.604;18.226;2024-03-06T13:22:08;16.40;43.00
17405;DHT22;8820;54.604;18.226;2024-03-06T13:24:36;16.40;43.80
17405;DHT22;8820;54.604;18.226;2024-03-06T13:27:07;16.70;43.70
17405;DHT22;8820;54.604;18.226;2024-03-06T13:29:36;16.50;43.90
17405;DHT22;8820;54.604;18.226;2024-03-06T13:32:04;15.60;43.90
17405;DHT22;8820;54.604;18.226;2024-03-06T13:34:34;16.10;45.60
17405;DHT22;8820;54.604;18.226;2024-03-06T13:37:02;16.30;44.50
17405;DHT22;8820;54.604;18.226;2024-03-06T13:39:30;16.30;44.30
17405;DHT22;8820;54.604;18.226;2024-03-06T13:41:58;16.80;43.50
17405;DHT22;8820;54.604;18.226;2024-03-06T13:44:27;15.50;43.00
17405;DHT22;8820;54.604;18.226;2024-03-06T13:46:55;15.00;46.00
17405;DHT22;8820;54.604;18.226;2024-03-06T13:49:36;15.00;45.50
17405;DHT22;8820;54.604;18.226;2024-03-06T13:52:06;14.70;45.90
17405;DHT22;8820;54.604;18.226;2024-03-06T13:54:37;14.90;46.60
17405;DHT22;8820;54.604;18.226;2024-03-06T13:57:06;14.80;46.60
17405;DHT22;8820;54.604;18.226;2024-03-06T13:59:35;14.70;47.40
17405;DHT22;8820;54.604;18.226;2024-03-06T14:02:05;14.80;46.80
17405;DHT22;8820;54.604;18.226;2024-03-06T14:04:35;14.80;47.00
17405;DHT22;8820;54.604;18.226;2024-03-06T14:07:03;14.90;47.40
17405;DHT22;8820;54.604;18.226;2024-03-06T14:09:32;14.70;47.30
17405;DHT22;8820;54.604;18.226;2024-03-06T14:12:00;13.30;48.60
17405;DHT22;8820;54.604;18.226;2024-03-06T14:14:28;12.60;51.50
17405;DHT22;8820;54.604;18.226;2024-03-06T14:16:56;12.90;51.70
17405;DHT22;8820;54.604;18.226;2024-03-06T14:19:25;12.60;51.50
17405;DHT22;8820;54.604;18.226;2024-03-06T14:21:54;12.50;51.80
17405;DHT22;8820;54.604;18.226;2024-03-06T14:24:25;12.10;53.40
17405;DHT22;8820;54.604;18.226;2024-03-06T14:26:53;11.70;54.40
17405;DHT22;8820;54.604;18.226;2024-03-06T14:29:24;12.00;53.80
17405;DHT22;8820;54.604;18.226;2024-03-06T14:31:55;12.00;53.00
17405;DHT22;8820;54.604;18.226;2024-03-06T14:34:23;11.70;53.20
17405;DHT22;8820;54.604;18.226;2024-03-06T14:36:51;11.20;54.20
17405;DHT22;8820;54.604;18.226;2024-03-06T14:39:21;11.80;54.20
17405;DHT22;8820;54.604;18.226;2024-03-06T14:41:51;12.10;53.30
17405;DHT22;8820;54.604;18.226;2024-03-06T14:44:20;12.30;53.70
17405;DHT22;8820;54.604;18.226;2024-03-06T14:46:48;12.10;53.40
17405;DHT22;8820;54.604;18.226;2024-03-06T14:49:16;11.40;54.50
17405;DHT22;8820;54.604;18.226;2024-03-06T14:51:44;11.40;55.20
17405;DHT22;8820;54.604;18.226;2024-03-06T14:54:12;11.70;55.00
17405;DHT22;8820;54.604;18.226;2024-03-06T14:56:42;11.80;54.90
17405;DHT22;8820;54.604;18.226;2024-03-06T14:59:11;11.30;55.00
17405;DHT22;8820;54.604;18.226;2024-03-06T15:01:39;11.40;55.80
17405;DHT22;8820;54.604;18.226;2024-03-06T15:04:07;11.20;55.50
17405;DHT22;8820;54.604;18.226;2024-03-06T15:06:36;10.70;57.00
17405;DHT22;8820;54.604;18.226;2024-03-06T15:09:05;10.80;57.30
17405;DHT22;8820;54.604;18.226;2024-03-06T15:11:33;11.20;57.50
17405;DHT22;8820;54.604;18.226;2024-03-06T15:14:02;11.30;57.50
17405;DHT22;8820;54.604;18.226;2024-03-06T15:16:30;11.50;56.90
17405;DHT22;8820;54.604;18.226;2024-03-06T15:18:58;11.50;57.30
17405;DHT22;8820;54.604;18.226;2024-03-06T15:21:28;11.40;56.90
17405;DHT22;8820;54.604;18.226;2024-03-06T15:23:56;11.00;56.90
17405;DHT22;8820;54.604;18.226;2024-03-06T15:26:26;11.00;57.30
17405;DHT22;8820;54.604;18.226;2024-03-06T15:28:54;10.80;57.70
17405;DHT22;8820;54.604;18.226;2024-03-06T15:31:24;10.60;58.90
17405;DHT22;8820;54.604;18.226;2024-03-06T15:33:52;10.60;58.90
17405;DHT22;8820;54.604;18.226;2024-03-06T15:36:20;10.30;59.60
17405;DHT22;8820;54.604;18.226;2024-03-06T15:38:48;10.30;59.90
17405;DHT22;8820;54.604;18.226;2024-03-06T15:41:17;10.20;60.00
17405;DHT22;8820;54.604;18.226;2024-03-06T15:43:47;10.20;59.90
17405;DHT22;8820;54.604;18.226;2024-03-06T15:46:15;9.90;60.50
17405;DHT22;8820;54.604;18.226;2024-03-06T15:48:45;9.70;61.30
17405;DHT22;8820;54.604;18.226;2024-03-06T15:51:13;9.70;62.30
17405;DHT22;8820;54.604;18.226;2024-03-06T15:53:42;9.70;62.60
17405;DHT22;8820;54.604;18.226;2024-03-06T15:56:10;9.80;62.40